Weather History for Milledgeville, GA

Change the Weather History Date:

Friday, November 16, 2012

  Actual Average (KOKZ) Record (KOKZ)
Temperature  
Mean Temperature 52 °F -  
Max Temperature 62 °F 67 °F - (-1)
Min Temperature 41 °F 40 °F - (-1)
Degree Days  
Heating Degree Days 14    
Growing Degree Days 2 (Base 50)    
Moisture  
Dew Point 42 °F    
Average Humidity 86    
Maximum Humidity 100    
Minimum Humidity 39    
Precipitation  
Precipitation 0.00 in - - ()
Sea Level Pressure  
Sea Level Pressure 30.28 in    
Wind  
Wind Speed 1 mph (NE)    
Max Wind Speed 6 mph    
Max Gust Speed -    
Visibility 9 miles    
Events      
Averages and records for this station are not official NWS values.
T = Trace of Precipitation, MM = Missing Value Source: NWS Daily Summary

Daily Weather History Graph

Daily Weather History Graph

Search for Another Location

Airport:

Trip Planner

Search our weather history database for the weather conditions in past years. The results will help you decide how hot, cold, wet, or windy it might be!

Date:

Astronomy

Nov. 16, 2012 Rise Set
Actual Time 7:05 AM EST 5:30 PM EST
Civil Twilight 6:38 AM EST 5:56 PM EST
Nautical Twilight 6:08 AM EST 6:26 PM EST
Astronomical Twilight 5:39 AM EST 6:55 PM EST
Moon 9:56 AM EST (11/16) 8:30 PM EST (11/16)
Length of Visible Light 11h 17m
Length of Day
10h 24m
Waxing Crescent, 11% of the Moon is Illuminated
Nov 16
Waxing Crescent
Nov 20
First Quarter
Nov 28
Full
Dec 6
Last Quarter
Dec 13
New

Hourly Weather History & Observations

Time (EST) Temp. Windchill Dew Point Humidity Pressure Visibility Wind Dir Wind Speed Gust Speed Precip Events Conditions
12:15 AM 44.6 °F - 44.6 °F 100% 30.27 in 3.0 mi Calm Calm - N/A   Scattered Clouds
12:35 AM 44.6 °F - 44.6 °F 100% 30.27 in 5.0 mi Calm Calm - N/A   Scattered Clouds
12:55 AM 44.6 °F - 44.6 °F 100% 30.27 in 3.0 mi Calm Calm - N/A   Scattered Clouds
1:15 AM 44.6 °F - 44.6 °F 100% 30.27 in 5.0 mi Calm Calm - N/A   Clear
1:35 AM 46.4 °F - 46.4 °F 100% 30.27 in 7.0 mi Calm Calm - N/A   Clear
1:55 AM 44.6 °F - 44.6 °F 100% 30.27 in 7.0 mi Calm Calm - N/A   Clear
2:15 AM 44.6 °F - 44.6 °F 100% 30.27 in 10.0 mi Calm Calm - N/A   Clear
2:35 AM 44.6 °F - 44.6 °F 100% 30.27 in 10.0 mi Calm Calm - N/A   Clear
2:55 AM 44.6 °F 43.1 °F 44.6 °F 100% 30.27 in 10.0 mi NE 3.5 mph - N/A   Clear
3:15 AM 44.6 °F - 44.6 °F 100% 30.27 in 10.0 mi Calm Calm - N/A   Clear
3:35 AM 44.6 °F - 44.6 °F 100% 30.27 in 10.0 mi Calm Calm - N/A   Clear
3:55 AM 44.6 °F 43.1 °F 44.6 °F 100% 30.27 in 10.0 mi NNE 3.5 mph - N/A   Clear
4:15 AM 42.8 °F - 42.8 °F 100% 30.26 in 10.0 mi Calm Calm - N/A   Clear
4:35 AM 42.8 °F - 42.8 °F 100% 30.26 in 10.0 mi Calm Calm - N/A   Clear
4:55 AM 42.8 °F - 42.8 °F 100% 30.26 in 10.0 mi Calm Calm - N/A   Clear
5:15 AM 42.8 °F - 42.8 °F 100% 30.27 in 10.0 mi Calm Calm - N/A   Clear
5:35 AM 42.8 °F - 42.8 °F 100% 30.26 in 10.0 mi Calm Calm - N/A   Clear
5:55 AM 42.8 °F 41.1 °F 42.8 °F 100% 30.27 in 10.0 mi North 3.5 mph - N/A   Clear
6:15 AM 41.0 °F 39.0 °F 41.0 °F 100% 30.27 in 10.0 mi North 3.5 mph - N/A   Clear
6:35 AM 42.8 °F - 42.8 °F 100% 30.27 in 10.0 mi Calm Calm - N/A   Clear
6:55 AM 42.8 °F 41.1 °F 42.8 °F 100% 30.27 in 10.0 mi NNE 3.5 mph - N/A   Clear
7:15 AM 42.8 °F - 42.8 °F 100% 30.29 in 10.0 mi Calm Calm - N/A   Clear
7:35 AM 42.8 °F - 42.8 °F 100% 30.29 in 10.0 mi Calm Calm - N/A   Clear
7:55 AM 42.8 °F 41.1 °F 42.8 °F 100% 30.30 in 10.0 mi NNE 3.5 mph - N/A   Clear
8:15 AM 42.8 °F 41.1 °F 42.8 °F 100% 30.31 in 10.0 mi ENE 3.5 mph - N/A   Scattered Clouds
8:35 AM 42.8 °F 39.3 °F 42.8 °F 100% 30.32 in 10.0 mi East 5.8 mph - N/A   Mostly Cloudy
8:55 AM 42.8 °F 40.1 °F 42.8 °F 100% 30.32 in 10.0 mi East 4.6 mph - N/A   Overcast
9:15 AM 44.6 °F 43.1 °F 44.6 °F 100% 30.32 in 7.0 mi NE 3.5 mph - N/A   Overcast
9:35 AM 44.6 °F 42.2 °F 44.6 °F 100% 30.32 in 5.0 mi ENE 4.6 mph - N/A   Overcast
9:55 AM 44.6 °F - 44.6 °F 100% 30.33 in 7.0 mi Calm Calm - N/A   Overcast
10:15 AM 44.6 °F - 44.6 °F 100% 30.33 in 7.0 mi Calm Calm - N/A   Overcast
10:55 AM 46.4 °F - 46.4 °F 100% 30.34 in 10.0 mi Calm Calm - N/A   Overcast
11:15 AM 48.2 °F - 48.2 °F 100% 30.33 in 10.0 mi Calm Calm - N/A   Mostly Cloudy
11:35 AM 50.0 °F - 46.4 °F 87% 30.32 in 10.0 mi Calm Calm - N/A   Scattered Clouds
11:55 AM 51.8 °F - 44.6 °F 76% 30.32 in 10.0 mi Calm Calm - N/A   Clear
12:35 PM 55.4 °F - 42.8 °F 63% 30.30 in 10.0 mi ENE 3.5 mph - N/A   Clear
12:55 PM 59.0 °F - 42.8 °F 55% 30.28 in 10.0 mi East 3.5 mph - N/A   Clear
1:35 PM 60.8 °F - 41.0 °F 48% 30.27 in 10.0 mi East 3.5 mph - N/A   Clear
1:55 PM 62.6 °F - 39.2 °F 42% 30.26 in 10.0 mi Calm Calm - N/A   Clear
2:15 PM 62.6 °F - 39.2 °F 42% 30.25 in 10.0 mi NNE 3.5 mph - N/A   Clear
2:35 PM 62.6 °F - 37.4 °F 39% 30.25 in 10.0 mi NE 4.6 mph - N/A   Clear
2:55 PM 62.6 °F - 37.4 °F 39% 30.24 in 10.0 mi NNE 3.5 mph - N/A   Clear
3:15 PM 62.6 °F - 37.4 °F 39% 30.24 in 10.0 mi NE 3.5 mph - N/A   Clear
3:35 PM 60.8 °F - 37.4 °F 42% 30.24 in 10.0 mi NE 5.8 mph - N/A   Clear
3:55 PM 60.8 °F - 37.4 °F 42% 30.24 in 10.0 mi NE 3.5 mph - N/A   Clear
4:15 PM 60.8 °F - 37.4 °F 42% 30.24 in 10.0 mi ENE 3.5 mph - N/A   Clear
4:35 PM 60.8 °F - 35.6 °F 39% 30.25 in 10.0 mi ENE 3.5 mph - N/A   Clear
5:15 PM 59.0 °F - 37.4 °F 45% 30.25 in 10.0 mi Calm Calm - N/A   Clear
5:35 PM 53.6 °F - 41.0 °F 62% 30.26 in 10.0 mi Calm Calm - N/A   Clear
5:55 PM 51.8 °F - 41.0 °F 67% 30.26 in 10.0 mi Calm Calm - N/A   Clear
6:15 PM 50.0 °F - 42.8 °F 76% 30.27 in 10.0 mi Calm Calm - N/A   Clear
6:35 PM 48.2 °F - 41.0 °F 76% 30.27 in 10.0 mi Calm Calm - N/A   Clear
6:55 PM 46.4 °F - 42.8 °F 87% 30.28 in 10.0 mi Calm Calm - N/A   Clear
7:15 PM 44.6 °F - 41.0 °F 87% 30.29 in 10.0 mi Calm Calm - N/A   Clear
7:35 PM 44.6 °F - 41.0 °F 87% 30.29 in 10.0 mi Calm Calm - N/A   Clear
7:55 PM 44.6 °F - 42.8 °F 93% 30.29 in 10.0 mi Calm Calm - N/A   Clear
8:15 PM 44.6 °F - 41.0 °F 87% 30.30 in 10.0 mi Calm Calm - N/A   Clear
8:35 PM 44.6 °F - 42.8 °F 93% 30.30 in 10.0 mi Calm Calm - N/A   Clear
8:55 PM 44.6 °F - 41.0 °F 87% 30.30 in 10.0 mi Calm Calm - N/A   Clear
9:15 PM 42.8 °F - 42.8 °F 100% 30.31 in 10.0 mi Calm Calm - N/A   Clear
9:35 PM 44.6 °F - 42.8 °F 93% 30.31 in 10.0 mi Calm Calm - N/A   Clear
9:55 PM 42.8 °F - 41.0 °F 93% 30.31 in 10.0 mi Calm Calm - N/A   Clear
10:15 PM 42.8 °F - 41.0 °F 93% 30.32 in 10.0 mi Calm Calm - N/A   Clear
10:35 PM 41.0 °F - 41.0 °F 100% 30.32 in 10.0 mi Calm Calm - N/A   Clear
10:55 PM 41.0 °F - 41.0 °F 100% 30.32 in 10.0 mi Calm Calm - N/A   Clear
11:15 PM 41.0 °F - 41.0 °F 100% 30.32 in 10.0 mi Calm Calm - N/A   Clear
11:35 PM 41.0 °F - 41.0 °F 100% 30.32 in 10.0 mi Calm Calm - N/A   Clear
11:55 PM 41.0 °F - 41.0 °F 100% 30.32 in 10.0 mi Calm Calm - N/A   Clear